Terminal Aerodrome Forecast
Issued by NWS Twin Cities, MN

Home | Current Version | Previous Version | Text Only | Print | Product List | Glossary On
Versions: 1 2 3 4 5 6 7 8 9 10 11 12 13 14 15
000
FTUS43 KMPX 020700 AAA
TAFSTC
TAF AMD
KSTC 020741Z 0208/0306 00000KT 4SM BR SCT002
      TEMPO 0209/0212 3/4SM BR BKN002
     FM021300 25005KT P6SM FEW050 SCT100=

USA.gov is the U.S. government's official web portal to all federal, state and local government web resources and services.